sensor_id;sensor_type;location;lat;lon;timestamp;P1;P2;P0
72031;PMS5003;49185;42.320;23.198;2023-03-01T00:02:18;0.00;0.00;0.00
72031;PMS5003;49185;42.320;23.198;2023-03-01T00:04:43;0.00;0.00;0.00
72031;PMS5003;49185;42.320;23.198;2023-03-01T00:07:09;0.00;0.00;0.00
72031;PMS5003;49185;42.320;23.198;2023-03-01T00:09:35;0.00;0.00;0.00
72031;PMS5003;49185;42.320;23.198;2023-03-01T00:12:01;4.00;2.00;0.00
72031;PMS5003;49185;42.320;23.198;2023-03-01T00:14:27;12.00;9.67;2.00
72031;PMS5003;49185;42.320;23.198;2023-03-01T00:16:52;8.00;6.00;1.00
72031;PMS5003;49185;42.320;23.198;2023-03-01T00:19:18;6.00;5.00;1.67
72031;PMS5003;49185;42.320;23.198;2023-03-01T00:21:44;2.50;2.50;0.00
72031;PMS5003;49185;42.320;23.198;2023-03-01T00:24:11;3.00;2.25;0.00
72031;PMS5003;49185;42.320;23.198;2023-03-01T00:26:37;6.67;6.00;0.00
72031;PMS5003;49185;42.320;23.198;2023-03-01T00:29:02;4.50;2.25;0.00
72031;PMS5003;49185;42.320;23.198;2023-03-01T00:31:29;2.00;2.00;0.00
72031;PMS5003;49185;42.320;23.198;2023-03-01T00:33:56;5.00;5.00;0.00
72031;PMS5003;49185;42.320;23.198;2023-03-01T00:36:28;4.00;4.00;0.00
72031;PMS5003;49185;42.320;23.198;2023-03-01T00:38:55;3.50;3.50;0.00
72031;PMS5003;49185;42.320;23.198;2023-03-01T00:41:21;4.00;4.00;0.00
72031;PMS5003;49185;42.320;23.198;2023-03-01T00:43:47;10.33;6.67;2.33
72031;PMS5003;49185;42.320;23.198;2023-03-01T00:46:14;8.67;6.00;2.00
72031;PMS5003;49185;42.320;23.198;2023-03-01T00:48:44;4.50;4.00;1.50
72031;PMS5003;49185;42.320;23.198;2023-03-01T00:53:41;2.50;1.00;1.00
72031;PMS5003;49185;42.320;23.198;2023-03-01T00:56:07;1.00;0.00;0.00
72031;PMS5003;49185;42.320;23.198;2023-03-01T00:58:35;2.00;0.00;0.00
72031;PMS5003;49185;42.320;23.198;2023-03-01T01:01:01;0.00;0.00;0.00
72031;PMS5003;49185;42.320;23.198;2023-03-01T01:03:33;1.25;1.00;0.00
72031;PMS5003;49185;42.320;23.198;2023-03-01T01:05:58;3.67;3.00;0.00
72031;PMS5003;49185;42.320;23.198;2023-03-01T01:08:23;2.00;2.00;0.00
72031;PMS5003;49185;42.320;23.198;2023-03-01T01:10:49;3.33;3.00;0.00
72031;PMS5003;49185;42.320;23.198;2023-03-01T01:13:14;0.00;0.00;0.00
72031;PMS5003;49185;42.320;23.198;2023-03-01T01:15:40;0.00;0.00;0.00
72031;PMS5003;49185;42.320;23.198;2023-03-01T01:18:05;0.00;0.00;0.00
72031;PMS5003;49185;42.320;23.198;2023-03-01T01:20:32;0.00;0.00;0.00
72031;PMS5003;49185;42.320;23.198;2023-03-01T01:22:57;0.00;0.00;0.00
72031;PMS5003;49185;42.320;23.198;2023-03-01T01:25:23;0.00;0.00;0.00
72031;PMS5003;49185;42.320;23.198;2023-03-01T01:27:48;0.00;0.00;0.00
72031;PMS5003;49185;42.320;23.198;2023-03-01T01:30:14;0.00;0.00;0.00
72031;PMS5003;49185;42.320;23.198;2023-03-01T01:32:39;0.00;0.00;0.00
72031;PMS5003;49185;42.320;23.198;2023-03-01T01:35:04;0.00;0.00;0.00
72031;PMS5003;49185;42.320;23.198;2023-03-01T01:37:30;0.00;0.00;0.00
72031;PMS5003;49185;42.320;23.198;2023-03-01T01:39:57;0.00;0.00;0.00
72031;PMS5003;49185;42.320;23.198;2023-03-01T01:42:23;0.00;0.00;0.00
72031;PMS5003;49185;42.320;23.198;2023-03-01T01:45:15;0.00;0.00;0.00
72031;PMS5003;49185;42.320;23.198;2023-03-01T01:47:51;0.00;0.00;0.00
72031;PMS5003;49185;42.320;23.198;2023-03-01T01:50:18;0.00;0.00;0.00
72031;PMS5003;49185;42.320;23.198;2023-03-01T01:52:44;0.00;0.00;0.00
72031;PMS5003;49185;42.320;23.198;2023-03-01T01:55:11;0.00;0.00;0.00
72031;PMS5003;49185;42.320;23.198;2023-03-01T01:57:49;0.00;0.00;0.00
72031;PMS5003;49185;42.320;23.198;2023-03-01T02:00:22;1.00;0.00;0.00
72031;PMS5003;49185;42.320;23.198;2023-03-01T02:02:50;0.00;0.00;0.00
72031;PMS5003;49185;42.320;23.198;2023-03-01T02:05:49;0.00;0.00;0.00
72031;PMS5003;49185;42.320;23.198;2023-03-01T02:08:22;0.00;0.00;0.00
72031;PMS5003;49185;42.320;23.198;2023-03-01T02:10:51;0.00;0.00;0.00
72031;PMS5003;49185;42.320;23.198;2023-03-01T02:13:19;0.00;0.00;0.00
72031;PMS5003;49185;42.320;23.198;2023-03-01T02:15:45;0.00;0.00;0.00
72031;PMS5003;49185;42.320;23.198;2023-03-01T02:18:12;0.00;0.00;0.00
72031;PMS5003;49185;42.320;23.198;2023-03-01T02:23:16;0.00;0.00;0.00
72031;PMS5003;49185;42.320;23.198;2023-03-01T02:26:04;0.00;0.00;0.00
72031;PMS5003;49185;42.320;23.198;2023-03-01T02:28:34;0.00;0.00;0.00
72031;PMS5003;49185;42.320;23.198;2023-03-01T02:31:01;0.00;0.00;0.00
72031;PMS5003;49185;42.320;23.198;2023-03-01T02:33:30;0.00;0.00;0.00
72031;PMS5003;49185;42.320;23.198;2023-03-01T02:35:57;0.00;0.00;0.00
72031;PMS5003;49185;42.320;23.198;2023-03-01T02:38:27;0.00;0.00;0.00
72031;PMS5003;49185;42.320;23.198;2023-03-01T02:40:53;0.00;0.00;0.00
72031;PMS5003;49185;42.320;23.198;2023-03-01T02:43:22;0.00;0.00;0.00
72031;PMS5003;49185;42.320;23.198;2023-03-01T02:45:56;0.00;0.00;0.00
72031;PMS5003;49185;42.320;23.198;2023-03-01T02:48:23;0.00;0.00;0.00
72031;PMS5003;49185;42.320;23.198;2023-03-01T02:51:05;0.00;0.00;0.00
72031;PMS5003;49185;42.320;23.198;2023-03-01T02:56:08;0.00;0.00;0.00
72031;PMS5003;49185;42.320;23.198;2023-03-01T02:58:34;0.00;0.00;0.00
72031;PMS5003;49185;42.320;23.198;2023-03-01T03:01:00;1.00;0.00;0.00
72031;PMS5003;49185;42.320;23.198;2023-03-01T03:03:25;0.00;0.00;0.00
72031;PMS5003;49185;42.320;23.198;2023-03-01T03:05:50;0.00;0.00;0.00
72031;PMS5003;49185;42.320;23.198;2023-03-01T03:08:16;0.00;0.00;0.00
72031;PMS5003;49185;42.320;23.198;2023-03-01T03:10:41;0.00;0.00;0.00
72031;PMS5003;49185;42.320;23.198;2023-03-01T03:13:08;0.00;0.00;0.00
72031;PMS5003;49185;42.320;23.198;2023-03-01T03:15:36;0.00;0.00;0.00
72031;PMS5003;49185;42.320;23.198;2023-03-01T03:18:02;0.00;0.00;0.00
72031;PMS5003;49185;42.320;23.198;2023-03-01T03:20:29;0.00;0.00;0.00
72031;PMS5003;49185;42.320;23.198;2023-03-01T03:22:56;0.00;0.00;0.00
72031;PMS5003;49185;42.320;23.198;2023-03-01T03:25:22;0.00;0.00;0.00
72031;PMS5003;49185;42.320;23.198;2023-03-01T03:27:49;0.00;0.00;0.00
72031;PMS5003;49185;42.320;23.198;2023-03-01T03:30:17;0.00;0.00;0.00
72031;PMS5003;49185;42.320;23.198;2023-03-01T03:32:45;0.00;0.00;0.00
72031;PMS5003;49185;42.320;23.198;2023-03-01T03:35:12;0.00;0.00;0.00
72031;PMS5003;49185;42.320;23.198;2023-03-01T03:37:40;0.00;0.00;0.00
72031;PMS5003;49185;42.320;23.198;2023-03-01T03:40:07;0.00;0.00;0.00
72031;PMS5003;49185;42.320;23.198;2023-03-01T03:42:32;0.00;0.00;0.00
72031;PMS5003;49185;42.320;23.198;2023-03-01T03:44:58;0.00;0.00;0.00
72031;PMS5003;49185;42.320;23.198;2023-03-01T03:47:23;0.00;0.00;0.00
72031;PMS5003;49185;42.320;23.198;2023-03-01T03:49:49;0.00;0.00;0.00
72031;PMS5003;49185;42.320;23.198;2023-03-01T03:52:14;0.00;0.00;0.00
72031;PMS5003;49185;42.320;23.198;2023-03-01T03:54:40;0.00;0.00;0.00
72031;PMS5003;49185;42.320;23.198;2023-03-01T03:57:05;0.00;0.00;0.00
72031;PMS5003;49185;42.320;23.198;2023-03-01T03:59:50;0.00;0.00;0.00
72031;PMS5003;49185;42.320;23.198;2023-03-01T04:02:15;0.00;0.00;0.00
72031;PMS5003;49185;42.320;23.198;2023-03-01T04:04:41;0.00;0.00;0.00
72031;PMS5003;49185;42.320;23.198;2023-03-01T04:07:06;0.00;0.00;0.00
72031;PMS5003;49185;42.320;23.198;2023-03-01T04:09:32;0.00;0.00;0.00
72031;PMS5003;49185;42.320;23.198;2023-03-01T04:11:57;0.00;0.00;0.00
72031;PMS5003;49185;42.320;23.198;2023-03-01T04:14:23;1.00;0.00;0.00
72031;PMS5003;49185;42.320;23.198;2023-03-01T04:16:48;0.00;0.00;0.00
72031;PMS5003;49185;42.320;23.198;2023-03-01T04:19:14;0.00;0.00;0.00
72031;PMS5003;49185;42.320;23.198;2023-03-01T04:21:39;0.00;0.00;0.00
72031;PMS5003;49185;42.320;23.198;2023-03-01T04:24:04;0.00;0.00;0.00
72031;PMS5003;49185;42.320;23.198;2023-03-01T04:26:30;0.00;0.00;0.00
72031;PMS5003;49185;42.320;23.198;2023-03-01T04:28:55;0.00;0.00;0.00
72031;PMS5003;49185;42.320;23.198;2023-03-01T04:31:21;0.00;0.00;0.00
72031;PMS5003;49185;42.320;23.198;2023-03-01T04:33:47;0.00;0.00;0.00
72031;PMS5003;49185;42.320;23.198;2023-03-01T04:36:15;0.00;0.00;0.00
72031;PMS5003;49185;42.320;23.198;2023-03-01T04:38:41;0.00;0.00;0.00
72031;PMS5003;49185;42.320;23.198;2023-03-01T04:41:08;2.00;1.00;0.00
72031;PMS5003;49185;42.320;23.198;2023-03-01T04:43:35;1.00;1.00;0.00
72031;PMS5003;49185;42.320;23.198;2023-03-01T04:46:02;1.00;1.00;0.00
72031;PMS5003;49185;42.320;23.198;2023-03-01T04:48:29;3.25;3.25;0.00
72031;PMS5003;49185;42.320;23.198;2023-03-01T04:50:55;2.00;1.50;0.00
72031;PMS5003;49185;42.320;23.198;2023-03-01T04:53:20;3.00;2.00;0.00
72031;PMS5003;49185;42.320;23.198;2023-03-01T04:55:46;3.00;3.00;0.00
72031;PMS5003;49185;42.320;23.198;2023-03-01T04:58:11;8.00;6.67;0.00
72031;PMS5003;49185;42.320;23.198;2023-03-01T05:00:36;7.33;6.67;0.00
72031;PMS5003;49185;42.320;23.198;2023-03-01T05:03:02;5.00;5.00;2.00
72031;PMS5003;49185;42.320;23.198;2023-03-01T05:05:29;5.00;5.00;2.00
72031;PMS5003;49185;42.320;23.198;2023-03-01T05:07:57;5.00;5.00;2.00
72031;PMS5003;49185;42.320;23.198;2023-03-01T05:10:25;4.00;4.00;0.00
72031;PMS5003;49185;42.320;23.198;2023-03-01T05:12:52;5.75;5.75;2.00
72031;PMS5003;49185;42.320;23.198;2023-03-01T05:15:18;6.00;5.00;3.00
72031;PMS5003;49185;42.320;23.198;2023-03-01T05:17:44;2.50;2.00;1.00
72031;PMS5003;49185;42.320;23.198;2023-03-01T05:20:10;1.00;1.00;0.00
72031;PMS5003;49185;42.320;23.198;2023-03-01T05:22:35;3.00;3.00;0.00
72031;PMS5003;49185;42.320;23.198;2023-03-01T05:25:02;4.75;3.00;0.00
72031;PMS5003;49185;42.320;23.198;2023-03-01T05:27:28;3.00;3.00;0.00
72031;PMS5003;49185;42.320;23.198;2023-03-01T05:29:55;2.00;2.00;0.00
72031;PMS5003;49185;42.320;23.198;2023-03-01T05:32:20;2.75;2.75;0.00
72031;PMS5003;49185;42.320;23.198;2023-03-01T05:34:46;6.00;5.00;0.00
72031;PMS5003;49185;42.320;23.198;2023-03-01T05:37:12;5.00;3.00;0.00
72031;PMS5003;49185;42.320;23.198;2023-03-01T05:39:38;2.00;1.00;0.00
72031;PMS5003;49185;42.320;23.198;2023-03-01T05:42:03;0.00;0.00;0.00
72031;PMS5003;49185;42.320;23.198;2023-03-01T05:44:28;1.33;1.33;0.00
72031;PMS5003;49185;42.320;23.198;2023-03-01T05:46:54;2.00;2.00;0.00
72031;PMS5003;49185;42.320;23.198;2023-03-01T05:49:20;2.00;2.00;0.00
72031;PMS5003;49185;42.320;23.198;2023-03-01T05:51:50;2.00;2.00;0.00
72031;PMS5003;49185;42.320;23.198;2023-03-01T05:54:18;1.00;0.00;0.00
72031;PMS5003;49185;42.320;23.198;2023-03-01T05:56:44;2.50;1.50;0.00
72031;PMS5003;49185;42.320;23.198;2023-03-01T05:59:10;4.00;2.67;0.00
72031;PMS5003;49185;42.320;23.198;2023-03-01T06:01:36;5.00;4.00;1.00
72031;PMS5003;49185;42.320;23.198;2023-03-01T06:04:02;2.75;2.75;0.00
72031;PMS5003;49185;42.320;23.198;2023-03-01T06:06:29;5.00;5.00;0.75
72031;PMS5003;49185;42.320;23.198;2023-03-01T06:08:54;5.33;5.00;2.00
72031;PMS5003;49185;42.320;23.198;2023-03-01T06:11:20;3.50;2.25;0.00
72031;PMS5003;49185;42.320;23.198;2023-03-01T06:13:46;5.00;5.00;1.00
72031;PMS5003;49185;42.320;23.198;2023-03-01T06:16:12;4.33;3.33;1.00
72031;PMS5003;49185;42.320;23.198;2023-03-01T06:18:38;6.00;5.50;2.00
72031;PMS5003;49185;42.320;23.198;2023-03-01T06:21:04;6.75;6.75;3.50
72031;PMS5003;49185;42.320;23.198;2023-03-01T06:23:30;5.00;5.00;2.00
72031;PMS5003;49185;42.320;23.198;2023-03-01T06:25:56;5.75;5.00;1.00
72031;PMS5003;49185;42.320;23.198;2023-03-01T06:28:22;3.00;2.00;1.00
72031;PMS5003;49185;42.320;23.198;2023-03-01T06:30:49;5.33;5.00;1.00
72031;PMS5003;49185;42.320;23.198;2023-03-01T06:33:14;5.00;4.00;1.00
72031;PMS5003;49185;42.320;23.198;2023-03-01T06:35:40;5.33;5.00;2.00
72031;PMS5003;49185;42.320;23.198;2023-03-01T06:38:05;4.00;4.00;1.00
72031;PMS5003;49185;42.320;23.198;2023-03-01T06:40:31;3.00;3.00;2.00
72031;PMS5003;49185;42.320;23.198;2023-03-01T06:42:57;4.50;3.00;2.00
72031;PMS5003;49185;42.320;23.198;2023-03-01T06:45:23;4.50;4.00;2.00
72031;PMS5003;49185;42.320;23.198;2023-03-01T06:47:49;6.00;6.00;2.00
72031;PMS5003;49185;42.320;23.198;2023-03-01T06:50:16;7.00;6.00;2.00
72031;PMS5003;49185;42.320;23.198;2023-03-01T06:52:42;5.00;5.00;2.00
72031;PMS5003;49185;42.320;23.198;2023-03-01T06:55:08;6.00;6.00;3.00
72031;PMS5003;49185;42.320;23.198;2023-03-01T06:57:33;6.00;5.00;2.00
72031;PMS5003;49185;42.320;23.198;2023-03-01T06:59:59;6.00;6.00;1.67
72031;PMS5003;49185;42.320;23.198;2023-03-01T07:02:24;5.00;4.00;1.00
72031;PMS5003;49185;42.320;23.198;2023-03-01T07:04:50;6.00;6.00;1.00
72031;PMS5003;49185;42.320;23.198;2023-03-01T07:07:16;6.00;6.00;1.00
72031;PMS5003;49185;42.320;23.198;2023-03-01T07:09:42;5.00;4.25;2.00
72031;PMS5003;49185;42.320;23.198;2023-03-01T07:12:07;3.00;3.00;0.00
72031;PMS5003;49185;42.320;23.198;2023-03-01T07:14:33;3.00;2.00;0.00
72031;PMS5003;49185;42.320;23.198;2023-03-01T07:16:58;1.00;1.00;0.00
72031;PMS5003;49185;42.320;23.198;2023-03-01T07:19:24;1.00;1.00;0.00
72031;PMS5003;49185;42.320;23.198;2023-03-01T07:21:49;1.00;1.00;0.00
72031;PMS5003;49185;42.320;23.198;2023-03-01T07:24:15;3.00;2.00;0.00
72031;PMS5003;49185;42.320;23.198;2023-03-01T07:26:40;3.00;3.00;0.00
72031;PMS5003;49185;42.320;23.198;2023-03-01T07:29:06;2.67;2.67;0.00
72031;PMS5003;49185;42.320;23.198;2023-03-01T07:31:32;4.25;4.25;0.00
72031;PMS5003;49185;42.320;23.198;2023-03-01T07:33:58;4.50;3.25;0.00
72031;PMS5003;49185;42.320;23.198;2023-03-01T07:36:24;3.00;3.00;0.00
72031;PMS5003;49185;42.320;23.198;2023-03-01T07:38:50;5.00;5.00;1.00
72031;PMS5003;49185;42.320;23.198;2023-03-01T07:41:16;6.00;6.00;4.00
72031;PMS5003;49185;42.320;23.198;2023-03-01T07:43:41;4.00;4.00;2.00
72031;PMS5003;49185;42.320;23.198;2023-03-01T07:46:07;4.00;3.67;1.00
72031;PMS5003;49185;42.320;23.198;2023-03-01T07:48:32;3.00;3.00;1.00
72031;PMS5003;49185;42.320;23.198;2023-03-01T07:50:59;2.00;2.00;0.25
72031;PMS5003;49185;42.320;23.198;2023-03-01T07:53:25;1.25;1.25;1.00
72031;PMS5003;49185;42.320;23.198;2023-03-01T07:56:04;3.50;3.50;0.00
72031;PMS5003;49185;42.320;23.198;2023-03-01T07:58:41;5.00;4.00;0.00
72031;PMS5003;49185;42.320;23.198;2023-03-01T08:01:09;3.75;3.00;0.00
72031;PMS5003;49185;42.320;23.198;2023-03-01T08:03:36;4.25;4.25;0.00
72031;PMS5003;49185;42.320;23.198;2023-03-01T08:06:03;4.00;3.75;0.00
72031;PMS5003;49185;42.320;23.198;2023-03-01T08:08:30;3.25;2.50;0.00
72031;PMS5003;49185;42.320;23.198;2023-03-01T08:10:57;7.50;7.50;3.00
72031;PMS5003;49185;42.320;23.198;2023-03-01T08:13:24;4.75;3.50;2.00
72031;PMS5003;49185;42.320;23.198;2023-03-01T08:15:50;3.50;3.50;2.00
72031;PMS5003;49185;42.320;23.198;2023-03-01T08:18:16;5.33;5.33;2.00
72031;PMS5003;49185;42.320;23.198;2023-03-01T08:20:41;6.75;6.75;2.00
72031;PMS5003;49185;42.320;23.198;2023-03-01T08:23:07;7.00;7.00;2.00
72031;PMS5003;49185;42.320;23.198;2023-03-01T08:25:32;8.00;7.00;2.00
72031;PMS5003;49185;42.320;23.198;2023-03-01T08:27:58;8.00;7.67;4.00
72031;PMS5003;49185;42.320;23.198;2023-03-01T08:30:23;4.00;4.00;2.67
72031;PMS5003;49185;42.320;23.198;2023-03-01T08:32:49;2.00;2.00;1.00
72031;PMS5003;49185;42.320;23.198;2023-03-01T08:35:15;2.00;2.00;1.00
72031;PMS5003;49185;42.320;23.198;2023-03-01T08:37:41;3.75;3.75;1.00
72031;PMS5003;49185;42.320;23.198;2023-03-01T08:40:08;5.00;4.33;1.00
72031;PMS5003;49185;42.320;23.198;2023-03-01T08:42:34;4.00;4.00;0.00
72031;PMS5003;49185;42.320;23.198;2023-03-01T08:45:00;5.67;5.00;0.00
72031;PMS5003;49185;42.320;23.198;2023-03-01T08:47:25;4.00;4.00;0.00
72031;PMS5003;49185;42.320;23.198;2023-03-01T08:49:51;5.00;5.00;0.00
72031;PMS5003;49185;42.320;23.198;2023-03-01T08:52:16;7.00;6.00;1.33
72031;PMS5003;49185;42.320;23.198;2023-03-01T08:54:41;8.00;7.33;4.67
72031;PMS5003;49185;42.320;23.198;2023-03-01T08:57:07;8.33;8.33;4.67
72031;PMS5003;49185;42.320;23.198;2023-03-01T08:59:33;8.00;7.00;2.25
72031;PMS5003;49185;42.320;23.198;2023-03-01T09:01:58;9.33;7.33;4.00
72031;PMS5003;49185;42.320;23.198;2023-03-01T09:04:24;15.67;14.33;9.00
72031;PMS5003;49185;42.320;23.198;2023-03-01T09:06:50;17.00;15.00;6.00
72031;PMS5003;49185;42.320;23.198;2023-03-01T09:09:16;13.00;10.00;4.00
72031;PMS5003;49185;42.320;23.198;2023-03-01T09:11:42;5.00;4.00;1.00
72031;PMS5003;49185;42.320;23.198;2023-03-01T09:14:09;8.00;6.75;3.25
72031;PMS5003;49185;42.320;23.198;2023-03-01T09:16:34;7.00;5.33;3.00
72031;PMS5003;49185;42.320;23.198;2023-03-01T09:19:00;7.00;7.00;2.00
72031;PMS5003;49185;42.320;23.198;2023-03-01T09:21:25;10.33;8.00;3.00
72031;PMS5003;49185;42.320;23.198;2023-03-01T09:23:51;10.33;9.00;2.00
72031;PMS5003;49185;42.320;23.198;2023-03-01T09:26:17;8.00;8.00;3.00
72031;PMS5003;49185;42.320;23.198;2023-03-01T09:28:44;6.25;6.25;3.00
72031;PMS5003;49185;42.320;23.198;2023-03-01T09:31:11;6.00;6.00;3.00
72031;PMS5003;49185;42.320;23.198;2023-03-01T09:33:38;6.00;6.00;2.00
72031;PMS5003;49185;42.320;23.198;2023-03-01T09:36:05;5.00;5.00;1.00
72031;PMS5003;49185;42.320;23.198;2023-03-01T09:38:32;5.50;5.25;0.00
72031;PMS5003;49185;42.320;23.198;2023-03-01T09:40:58;8.00;8.00;1.00
72031;PMS5003;49185;42.320;23.198;2023-03-01T09:46:11;6.25;6.25;2.75
72031;PMS5003;49185;42.320;23.198;2023-03-01T09:48:43;4.25;4.25;1.00
72031;PMS5003;49185;42.320;23.198;2023-03-01T09:51:16;6.75;6.00;3.00
72031;PMS5003;49185;42.320;23.198;2023-03-01T09:53:44;6.25;6.25;3.00
72031;PMS5003;49185;42.320;23.198;2023-03-01T10:04:16;6.00;5.00;2.00
72031;PMS5003;49185;42.320;23.198;2023-03-01T10:06:39;5.00;5.00;1.00
72031;PMS5003;49185;42.320;23.198;2023-03-01T10:09:12;7.00;7.00;0.00
72031;PMS5003;49185;42.320;23.198;2023-03-01T10:11:52;5.00;5.00;0.00
72031;PMS5003;49185;42.320;23.198;2023-03-01T10:14:27;5.00;5.00;2.00
72031;PMS5003;49185;42.320;23.198;2023-03-01T10:17:01;3.00;2.75;0.00
72031;PMS5003;49185;42.320;23.198;2023-03-01T10:22:26;6.00;6.00;0.00
72031;PMS5003;49185;42.320;23.198;2023-03-01T10:24:53;5.00;4.00;0.00
72031;PMS5003;49185;42.320;23.198;2023-03-01T10:30:13;4.00;4.00;0.00
72031;PMS5003;49185;42.320;23.198;2023-03-01T10:32:44;5.00;5.00;0.00
72031;PMS5003;49185;42.320;23.198;2023-03-01T10:35:23;6.00;6.00;2.00
72031;PMS5003;49185;42.320;23.198;2023-03-01T10:38:07;6.00;6.00;2.00
72031;PMS5003;49185;42.320;23.198;2023-03-01T10:40:35;4.00;3.25;1.00
72031;PMS5003;49185;42.320;23.198;2023-03-01T10:43:14;7.00;7.00;1.25
72031;PMS5003;49185;42.320;23.198;2023-03-01T10:45:39;5.00;5.00;2.00
72031;PMS5003;49185;42.320;23.198;2023-03-01T10:50:33;5.50;5.50;1.75
72031;PMS5003;49185;42.320;23.198;2023-03-01T10:53:00;5.00;4.00;1.00
72031;PMS5003;49185;42.320;23.198;2023-03-01T10:55:33;5.00;4.00;0.00
72031;PMS5003;49185;42.320;23.198;2023-03-01T11:00:48;5.25;5.25;0.50
72031;PMS5003;49185;42.320;23.198;2023-03-01T11:03:33;3.25;3.25;1.00
72031;PMS5003;49185;42.320;23.198;2023-03-01T11:06:02;4.75;4.75;1.00
72031;PMS5003;49185;42.320;23.198;2023-03-01T11:13:55;11.25;8.50;2.50
72031;PMS5003;49185;42.320;23.198;2023-03-01T11:16:24;10.00;8.00;3.00
72031;PMS5003;49185;42.320;23.198;2023-03-01T11:18:56;12.50;12.50;5.00
72031;PMS5003;49185;42.320;23.198;2023-03-01T11:21:34;10.00;7.75;3.00
72031;PMS5003;49185;42.320;23.198;2023-03-01T11:24:04;12.50;11.25;4.75
72031;PMS5003;49185;42.320;23.198;2023-03-01T11:26:35;12.00;9.00;3.25
72031;PMS5003;49185;42.320;23.198;2023-03-01T11:29:06;10.00;7.00;3.00
72031;PMS5003;49185;42.320;23.198;2023-03-01T11:31:41;8.00;8.00;4.00
72031;PMS5003;49185;42.320;23.198;2023-03-01T11:34:11;8.25;8.25;4.00
72031;PMS5003;49185;42.320;23.198;2023-03-01T11:39:28;7.00;7.00;3.00
72031;PMS5003;49185;42.320;23.198;2023-03-01T11:44:40;8.50;8.50;3.00
72031;PMS5003;49185;42.320;23.198;2023-03-01T11:50:03;7.00;4.50;1.00
72031;PMS5003;49185;42.320;23.198;2023-03-01T11:53:17;7.25;7.00;3.00
72031;PMS5003;49185;42.320;23.198;2023-03-01T11:58:45;6.00;5.00;2.00
72031;PMS5003;49185;42.320;23.198;2023-03-01T12:01:27;5.00;4.00;2.00
72031;PMS5003;49185;42.320;23.198;2023-03-01T12:04:36;6.25;6.00;2.00
72031;PMS5003;49185;42.320;23.198;2023-03-01T12:26:44;5.75;5.00;0.00
72031;PMS5003;49185;42.320;23.198;2023-03-01T12:29:25;6.75;5.50;0.00
72031;PMS5003;49185;42.320;23.198;2023-03-01T12:51:11;6.00;5.50;2.25
72031;PMS5003;49185;42.320;23.198;2023-03-01T12:53:47;4.75;4.75;1.00
72031;PMS5003;49185;42.320;23.198;2023-03-01T12:56:17;6.00;4.00;0.00
72031;PMS5003;49185;42.320;23.198;2023-03-01T13:09:56;8.50;8.00;3.00
72031;PMS5003;49185;42.320;23.198;2023-03-01T13:17:47;11.00;9.33;3.00
72031;PMS5003;49185;42.320;23.198;2023-03-01T13:20:18;7.00;4.75;1.00
72031;PMS5003;49185;42.320;23.198;2023-03-01T13:22:46;6.25;4.00;1.00
72031;PMS5003;49185;42.320;23.198;2023-03-01T13:25:14;8.00;7.00;1.00
72031;PMS5003;49185;42.320;23.198;2023-03-01T13:27:45;7.25;7.25;3.00
72031;PMS5003;49185;42.320;23.198;2023-03-01T13:30:57;9.50;9.00;4.25
72031;PMS5003;49185;42.320;23.198;2023-03-01T13:35:58;5.00;5.00;2.00
72031;PMS5003;49185;42.320;23.198;2023-03-01T13:41:58;5.00;4.00;1.00
72031;PMS5003;49185;42.320;23.198;2023-03-01T13:46:48;5.75;5.00;1.00
72031;PMS5003;49185;42.320;23.198;2023-03-01T13:49:19;6.00;6.00;1.00
72031;PMS5003;49185;42.320;23.198;2023-03-01T13:51:47;6.00;6.00;2.00
72031;PMS5003;49185;42.320;23.198;2023-03-01T13:54:18;4.75;4.00;1.00
72031;PMS5003;49185;42.320;23.198;2023-03-01T13:56:51;4.25;4.25;2.00
72031;PMS5003;49185;42.320;23.198;2023-03-01T13:59:19;6.00;5.25;1.00
72031;PMS5003;49185;42.320;23.198;2023-03-01T14:04:24;3.00;3.00;1.00
72031;PMS5003;49185;42.320;23.198;2023-03-01T14:06:49;4.00;4.00;0.00
72031;PMS5003;49185;42.320;23.198;2023-03-01T14:09:25;6.00;4.67;1.00
72031;PMS5003;49185;42.320;23.198;2023-03-01T14:14:38;6.00;6.00;2.50
72031;PMS5003;49185;42.320;23.198;2023-03-01T14:20:18;3.00;2.00;0.00
72031;PMS5003;49185;42.320;23.198;2023-03-01T14:22:46;6.75;5.00;0.00
72031;PMS5003;49185;42.320;23.198;2023-03-01T14:25:17;6.00;5.00;0.00
72031;PMS5003;49185;42.320;23.198;2023-03-01T14:27:59;5.00;4.00;0.00
72031;PMS5003;49185;42.320;23.198;2023-03-01T14:30:37;4.50;4.00;0.00
72031;PMS5003;49185;42.320;23.198;2023-03-01T14:33:17;6.75;6.25;0.00
72031;PMS5003;49185;42.320;23.198;2023-03-01T14:35:57;8.25;7.00;1.00
72031;PMS5003;49185;42.320;23.198;2023-03-01T14:38:48;10.00;8.50;4.00
72031;PMS5003;49185;42.320;23.198;2023-03-01T14:43:45;12.25;10.75;5.25
72031;PMS5003;49185;42.320;23.198;2023-03-01T14:46:18;11.00;8.00;3.00
72031;PMS5003;49185;42.320;23.198;2023-03-01T14:48:48;5.00;5.00;1.00
72031;PMS5003;49185;42.320;23.198;2023-03-01T14:51:15;7.25;6.25;2.00
72031;PMS5003;49185;42.320;23.198;2023-03-01T14:53:41;8.00;7.33;2.00
72031;PMS5003;49185;42.320;23.198;2023-03-01T14:56:12;6.25;6.00;2.00
72031;PMS5003;49185;42.320;23.198;2023-03-01T14:58:51;8.75;7.50;3.00
72031;PMS5003;49185;42.320;23.198;2023-03-01T15:01:18;7.50;7.00;3.00
72031;PMS5003;49185;42.320;23.198;2023-03-01T15:03:45;6.25;5.00;1.00
72031;PMS5003;49185;42.320;23.198;2023-03-01T15:06:19;7.50;6.00;2.75
72031;PMS5003;49185;42.320;23.198;2023-03-01T15:08:48;5.75;5.00;2.00
72031;PMS5003;49185;42.320;23.198;2023-03-01T15:11:23;7.50;6.25;2.00
72031;PMS5003;49185;42.320;23.198;2023-03-01T15:13:52;7.00;7.00;2.00
72031;PMS5003;49185;42.320;23.198;2023-03-01T15:16:29;7.00;7.00;2.50
72031;PMS5003;49185;42.320;23.198;2023-03-01T15:21:24;6.00;5.25;2.00
72031;PMS5003;49185;42.320;23.198;2023-03-01T15:23:56;5.50;5.50;2.00
72031;PMS5003;49185;42.320;23.198;2023-03-01T15:26:32;5.00;5.00;2.00
72031;PMS5003;49185;42.320;23.198;2023-03-01T15:29:02;8.00;7.00;2.00
72031;PMS5003;49185;42.320;23.198;2023-03-01T15:31:29;6.00;6.00;3.00
72031;PMS5003;49185;42.320;23.198;2023-03-01T15:34:08;11.25;8.50;5.00
72031;PMS5003;49185;42.320;23.198;2023-03-01T15:36:47;14.75;13.50;5.00
72031;PMS5003;49185;42.320;23.198;2023-03-01T15:45:07;16.00;15.00;5.00
72031;PMS5003;49185;42.320;23.198;2023-03-01T15:47:39;15.25;11.00;5.00
72031;PMS5003;49185;42.320;23.198;2023-03-01T15:50:14;15.00;11.75;5.50
72031;PMS5003;49185;42.320;23.198;2023-03-01T15:52:46;15.00;11.00;5.00
72031;PMS5003;49185;42.320;23.198;2023-03-01T15:55:19;15.50;11.25;6.00
72031;PMS5003;49185;42.320;23.198;2023-03-01T15:57:57;11.75;8.25;4.00
72031;PMS5003;49185;42.320;23.198;2023-03-01T16:00:23;20.75;18.25;9.25
72031;PMS5003;49185;42.320;23.198;2023-03-01T16:02:49;21.50;19.00;7.50
72031;PMS5003;49185;42.320;23.198;2023-03-01T16:07:51;15.50;14.00;5.00
72031;PMS5003;49185;42.320;23.198;2023-03-01T16:10:17;16.50;13.25;5.75
72031;PMS5003;49185;42.320;23.198;2023-03-01T16:12:43;18.50;17.00;6.00
72031;PMS5003;49185;42.320;23.198;2023-03-01T16:15:13;17.00;16.00;5.00
72031;PMS5003;49185;42.320;23.198;2023-03-01T16:17:41;13.75;12.00;4.00
72031;PMS5003;49185;42.320;23.198;2023-03-01T16:20:07;15.00;13.00;5.00
72031;PMS5003;49185;42.320;23.198;2023-03-01T16:22:33;12.00;10.00;5.00
72031;PMS5003;49185;42.320;23.198;2023-03-01T16:24:59;17.00;12.33;6.00
72031;PMS5003;49185;42.320;23.198;2023-03-01T16:27:24;15.00;11.00;5.00
72031;PMS5003;49185;42.320;23.198;2023-03-01T16:29:49;14.00;11.00;5.00